Time;durP1;ratioP1;P1;durP2;ratioP2;P2;SDS_P1;SDS_P2;PMS_P1;PMS_P2;Temp;Humidity;BMP_temperature;BMP_pressure;BME280_temperature;BME280_humidity;BME280_pressure;Samples;Min_cycle;Max_cycle;Signal;HPM_P1;HPM_P2
2022/06/06 00:00:29;;;;;;;3.10;2.43;;;;;;;18.53;72.39;100661.34;4208684;28;20044;-75
2022/06/06 00:02:32;;;;;;;4.95;2.58;;;;;;;18.54;72.36;100665.72;4198304;28;20041;-75
2022/06/06 00:04:36;;;;;;;6.82;2.50;;;;;;;18.49;72.58;100655.28;4199147;28;20086;-75
2022/06/06 00:06:40;;;;;;;3.63;2.95;;;;;;;18.45;72.85;100664.13;4198586;28;20548;-75
2022/06/06 00:08:43;;;;;;;8.02;2.90;;;;;;;18.40;73.56;100661.56;4206414;28;20071;-75
2022/06/06 00:10:47;;;;;;;3.25;2.30;;;;;;;18.40;73.68;100658.03;4206175;28;20040;-75
2022/06/06 00:12:50;;;;;;;3.85;2.40;;;;;;;18.36;73.77;100653.72;4207603;28;20037;-75
2022/06/06 00:14:54;;;;;;;5.07;2.42;;;;;;;18.36;73.60;100654.59;4210642;28;20505;-75
2022/06/06 00:16:58;;;;;;;4.75;2.60;;;;;;;18.29;73.83;100658.19;4198878;28;20589;-75
2022/06/06 00:19:01;;;;;;;3.42;2.55;;;;;;;18.25;73.64;100665.28;4206467;28;20024;-75
2022/06/06 00:21:07;;;;;;;6.50;2.80;;;;;;;18.24;73.45;100662.69;4189690;28;20033;-75
2022/06/06 00:23:10;;;;;;;3.78;2.70;;;;;;;18.21;74.09;100660.06;4213363;28;20441;-75
2022/06/06 00:25:14;;;;;;;5.28;2.65;;;;;;;18.19;73.63;100653.97;4199207;28;20063;-75
2022/06/06 00:27:17;;;;;;;6.53;3.10;;;;;;;18.18;74.02;100654.84;4198696;28;20053;-75
2022/06/06 00:29:21;;;;;;;5.97;3.10;;;;;;;18.16;74.19;100648.75;4187915;28;20418;-75
2022/06/06 00:36:06;;;;;;;4.85;2.70;;;;;;;18.11;73.85;100664.59;4198113;28;20405;-75
2022/06/06 00:38:09;;;;;;;6.43;2.78;;;;;;;18.06;74.05;100669.03;4212553;28;20046;-76
2022/06/06 00:40:14;;;;;;;4.85;3.00;;;;;;;18.03;74.58;100663.81;4207380;28;20568;-75
2022/06/06 00:42:21;;;;;;;6.32;3.08;;;;;;;18.02;74.04;100662.06;4207184;28;20036;-75
2022/06/06 00:44:28;;;;;;;8.23;3.60;;;;;;;18.01;74.33;100663.84;4213304;28;20047;-76
2022/06/06 00:46:35;;;;;;;5.55;3.00;;;;;;;17.97;74.18;100667.41;4206255;28;20082;-76
2022/06/06 00:48:41;;;;;;;3.80;2.92;;;;;;;17.97;74.10;100670.03;4215605;28;20530;-76
2022/06/06 00:50:52;;;;;;;4.35;3.13;;;;;;;17.94;74.52;100662.19;4212999;28;20067;-76
2022/06/06 00:52:57;;;;;;;4.30;3.17;;;;;;;17.93;74.42;100655.19;4206015;28;20036;-76
2022/06/06 00:55:04;;;;;;;4.13;3.20;;;;;;;17.92;74.37;100656.94;4206062;28;20039;-76
2022/06/06 00:57:14;;;;;;;5.07;3.15;;;;;;;17.89;74.33;100645.56;4200478;28;20049;-76
2022/06/06 00:59:21;;;;;;;3.97;2.97;;;;;;;17.88;74.40;100649.94;4206976;28;20036;-76
2022/06/06 01:01:26;;;;;;;7.35;3.00;;;;;;;17.87;74.20;100647.34;4205529;28;20060;-76
2022/06/06 01:03:31;;;;;;;5.55;3.65;;;;;;;17.86;74.49;100642.97;4206066;28;20127;-75
2022/06/06 01:05:36;;;;;;;4.30;2.97;;;;;;;17.83;74.77;100640.38;4206487;28;20051;-75
2022/06/06 01:07:39;;;;;;;5.78;3.72;;;;;;;17.93;74.79;100634.13;4206394;28;20040;-75
2022/06/06 01:09:44;;;;;;;4.72;3.17;;;;;;;17.89;74.36;100633.28;4194806;28;20041;-75
2022/06/06 01:11:53;;;;;;;6.80;3.08;;;;;;;17.83;74.77;100629.84;4205953;28;20128;-75
2022/06/06 01:13:56;;;;;;;5.00;3.35;;;;;;;17.84;74.62;100624.56;4201236;28;20589;-75
2022/06/06 01:16:23;;;;;;;4.27;3.40;;;;;;;17.80;74.49;100631.66;4206746;28;20040;-75
2022/06/06 01:18:37;;;;;;;7.32;3.45;;;;;;;17.82;74.30;100617.63;4204715;28;20305;-75
2022/06/06 01:21:01;;;;;;;4.47;2.90;;;;;;;17.80;74.43;100618.50;4207559;28;20048;-75
2022/06/06 01:23:46;;;;;;;4.35;3.25;;;;;;;17.72;74.81;100622.97;4198354;28;20297;-75
2022/06/06 01:26:29;;;;;;;5.22;4.00;;;;;;;17.71;74.90;100620.38;4206016;28;20540;-75
2022/06/06 01:28:48;;;;;;;5.40;3.95;;;;;;;17.74;74.69;100613.31;4146769;28;20052;-75
2022/06/06 01:30:55;;;;;;;7.68;4.05;;;;;;;17.75;74.85;100614.19;4183280;28;20576;-74
2022/06/06 01:33:01;;;;;;;9.20;3.78;;;;;;;17.75;74.83;100612.41;4203299;28;21965;-74
2022/06/06 01:35:06;;;;;;;6.43;3.58;;;;;;;17.71;74.46;100605.47;4202692;28;20046;-75
2022/06/06 01:37:25;;;;;;;6.32;3.63;;;;;;;17.63;74.97;100620.47;4211522;28;20467;-75
2022/06/06 01:39:31;;;;;;;7.88;4.50;;;;;;;17.64;75.39;100611.72;4196796;28;20075;-75
2022/06/06 01:41:42;;;;;;;6.80;4.00;;;;;;;17.76;74.77;100621.19;4203592;28;20517;-74
2022/06/06 01:43:52;;;;;;;6.32;4.30;;;;;;;17.73;74.78;100603.69;4201410;28;20045;-75
2022/06/06 01:45:59;;;;;;;5.25;3.92;;;;;;;17.80;74.56;100607.97;4205970;28;20036;-75
2022/06/06 01:48:06;;;;;;;8.32;4.07;;;;;;;17.73;74.68;100603.69;4208488;28;20037;-76
2022/06/06 01:50:10;;;;;;;4.93;3.65;;;;;;;17.66;74.97;100599.41;4205691;28;20036;-75
2022/06/06 01:52:15;;;;;;;6.10;4.07;;;;;;;17.66;74.89;100602.03;4196962;28;20064;-75
2022/06/06 01:54:18;;;;;;;7.80;4.45;;;;;;;17.69;74.59;100606.38;4201379;28;20052;-76
2022/06/06 01:56:24;;;;;;;5.75;4.13;;;;;;;17.71;74.58;100599.34;4197840;28;20040;-76
2022/06/06 01:58:30;;;;;;;8.50;3.92;;;;;;;17.68;74.62;100607.25;4210450;28;20371;-75
2022/06/06 02:00:36;;;;;;;8.85;5.00;;;;;;;17.65;74.97;100612.56;4198331;28;20036;-76
2022/06/06 02:02:40;;;;;;;5.70;4.18;;;;;;;17.62;74.79;100605.56;4196922;28;20494;-76
2022/06/06 02:04:43;;;;;;;7.53;3.38;;;;;;;17.56;74.99;100608.28;4198046;28;20032;-76
2022/06/06 02:06:46;;;;;;;7.18;3.90;;;;;;;17.51;75.21;100607.47;4210612;28;20032;-76
2022/06/06 02:08:51;;;;;;;7.20;4.13;;;;;;;17.47;75.04;100613.66;4210483;28;20051;-76
2022/06/06 02:10:54;;;;;;;6.57;4.13;;;;;;;17.45;74.89;100606.66;4205007;28;20171;-76
2022/06/06 02:12:57;;;;;;;4.87;3.77;;;;;;;17.44;75.22;100602.28;4198497;28;20041;-75
2022/06/06 02:15:00;;;;;;;10.13;4.68;;;;;;;17.57;74.61;100610.91;4209937;28;20401;-74
2022/06/06 02:17:06;;;;;;;5.85;4.57;;;;;;;17.68;74.34;100610.75;4210934;28;20036;-74
2022/06/06 02:19:11;;;;;;;6.05;3.38;;;;;;;17.71;74.55;100605.47;4204213;28;20040;-74
2022/06/06 02:21:16;;;;;;;5.65;4.18;;;;;;;17.73;74.31;100613.34;4204566;28;20573;-74
2022/06/06 02:23:19;;;;;;;6.07;4.22;;;;;;;17.70;74.00;100610.75;4198981;28;20037;-74
2022/06/06 02:25:22;;;;;;;6.47;4.68;;;;;;;17.79;73.85;100606.22;4205100;28;20075;-74
2022/06/06 02:27:28;;;;;;;11.68;5.28;;;;;;;17.86;73.17;100608.78;4196671;28;20043;-74
2022/06/06 02:29:31;;;;;;;6.38;4.30;;;;;;;17.72;73.63;100612.47;4205578;28;20034;-74
2022/06/06 02:31:37;;;;;;;7.35;4.05;;;;;;;17.63;74.25;100620.47;4200616;28;20060;-75
2022/06/06 02:33:42;;;;;;;7.90;4.68;;;;;;;17.52;74.67;100625.88;4202929;28;20050;-75
2022/06/06 02:35:46;;;;;;;7.07;4.28;;;;;;;17.45;74.92;100630.31;4196960;28;20044;-74
2022/06/06 02:37:50;;;;;;;6.35;4.47;;;;;;;17.49;74.88;100619.75;4205597;28;20036;-75
2022/06/06 02:39:53;;;;;;;8.57;4.35;;;;;;;17.42;75.35;100625.09;4209489;28;20060;-75
2022/06/06 02:41:56;;;;;;;7.43;4.22;;;;;;;17.35;75.35;100626.06;4196928;28;20127;-75
2022/06/06 02:43:59;;;;;;;6.18;4.45;;;;;;;17.34;75.44;100626.94;4201061;28;20060;-75
2022/06/06 02:46:03;;;;;;;8.13;4.82;;;;;;;17.27;75.72;100626.16;4206267;28;20038;-75
2022/06/06 02:48:07;;;;;;;10.95;4.95;;;;;;;17.28;75.89;100627.00;4203859;28;20072;-75
2022/06/06 02:50:11;;;;;;;8.00;4.45;;;;;;;17.28;75.82;100622.59;4206749;28;20115;-74
2022/06/06 02:52:14;;;;;;;6.07;4.93;;;;;;;17.23;75.84;100621.81;4196679;28;20131;-75
2022/06/06 02:54:17;;;;;;;6.35;4.22;;;;;;;17.28;75.69;100627.00;4203441;28;20490;-75
2022/06/06 02:56:20;;;;;;;8.35;4.72;;;;;;;17.36;75.47;100624.28;4201542;28;20291;-75
2022/06/06 02:58:24;;;;;;;11.45;5.57;;;;;;;17.39;75.87;100619.88;4205285;28;20047;-75
2022/06/06 03:00:30;;;;;;;6.25;5.00;;;;;;;17.42;75.39;100619.84;4205679;28;20043;-75
2022/06/06 03:02:33;;;;;;;8.65;5.85;;;;;;;17.47;75.41;100622.41;4197269;28;20135;-75
2022/06/06 03:04:38;;;;;;;8.05;5.65;;;;;;;17.48;75.42;100618.91;4196878;28;20044;-75
2022/06/06 03:06:55;;;;;;;7.65;6.10;;;;;;;17.54;75.33;100620.59;4204699;28;20127;-74
2022/06/06 03:09:09;;;;;;;8.18;5.38;;;;;;;17.52;75.48;100619.72;4206682;28;20127;-74
2022/06/06 03:11:26;;;;;;;6.88;4.47;;;;;;;17.50;75.52;100626.78;4198226;28;20048;-74
2022/06/06 03:13:43;;;;;;;8.82;4.95;;;;;;;17.48;75.74;100623.28;4196875;28;20432;-74
2022/06/06 03:20:59;;;;;;;9.98;5.30;;;;;;;17.45;75.17;100625.06;4205200;28;20136;-74
2022/06/06 03:23:20;;;;;;;8.27;5.13;;;;;;;17.48;74.94;100628.53;4196667;28;20068;-74
2022/06/06 03:25:31;;;;;;;7.57;5.30;;;;;;;17.43;74.99;100621.59;4197167;28;20375;-74
2022/06/06 03:27:46;;;;;;;9.38;5.30;;;;;;;17.43;75.21;100629.47;4204529;28;20123;-75
2022/06/06 03:30:04;;;;;;;8.65;5.38;;;;;;;17.41;75.08;100628.59;4207775;28;20131;-74
2022/06/06 03:32:20;;;;;;;9.85;5.40;;;;;;;17.40;75.25;100632.13;4200254;28;20428;-75
2022/06/06 03:34:31;;;;;;;11.45;6.28;;;;;;;17.48;75.17;100636.41;4195554;28;20587;-74
2022/06/06 03:36:40;;;;;;;6.68;5.35;;;;;;;17.52;74.68;100632.88;4204749;28;20044;-74
2022/06/06 03:38:52;;;;;;;9.45;5.90;;;;;;;17.57;74.39;100638.97;4203597;28;20076;-75
2022/06/06 03:41:05;;;;;;;12.25;6.18;;;;;;;17.44;74.98;100640.84;4199014;28;20118;-75
2022/06/06 03:43:21;;;;;;;10.77;6.18;;;;;;;17.44;75.26;100640.84;4201729;28;20036;-75
2022/06/06 03:45:30;;;;;;;9.60;5.85;;;;;;;17.44;74.85;100633.81;4196472;28;20082;-75
2022/06/06 03:47:47;;;;;;;7.45;5.50;;;;;;;17.48;74.84;100634.69;4204908;28;20036;-75
2022/06/06 03:50:00;;;;;;;7.47;4.45;;;;;;;17.47;75.01;100634.69;4204554;28;20047;-75
2022/06/06 03:52:16;;;;;;;6.18;4.55;;;;;;;17.42;74.78;100646.13;4202549;28;20128;-74
2022/06/06 03:54:29;;;;;;;8.50;5.60;;;;;;;17.55;74.77;100640.72;4203827;28;20115;-74
2022/06/06 03:56:45;;;;;;;12.25;6.18;;;;;;;17.53;74.80;100651.25;4208346;28;20382;-75
2022/06/06 03:58:49;;;;;;;8.25;4.85;;;;;;;17.51;74.84;100660.03;4186670;28;20136;-74
2022/06/06 04:00:55;;;;;;;8.55;6.13;;;;;;;17.47;75.18;100655.72;4213479;28;20344;-74
2022/06/06 04:03:00;;;;;;;7.95;5.90;;;;;;;17.44;75.04;100662.75;4202939;28;20449;-74
2022/06/06 04:05:07;;;;;;;7.10;5.78;;;;;;;17.44;75.16;100670.63;4210919;28;20077;-74
2022/06/06 04:07:10;;;;;;;8.50;5.38;;;;;;;17.43;75.36;100670.63;4214675;28;20048;-74
2022/06/06 04:09:13;;;;;;;6.97;5.25;;;;;;;17.41;75.32;100675.91;4195290;28;20548;-74
2022/06/06 04:11:32;;;;;;;8.40;5.70;;;;;;;17.44;75.40;100672.38;4201138;28;20044;-74
2022/06/06 04:13:44;;;;;;;8.57;5.75;;;;;;;17.47;75.47;100680.25;4208037;28;20393;-74
2022/06/06 04:15:53;;;;;;;8.55;5.53;;;;;;;17.45;75.33;100676.78;4207593;28;20040;-74
2022/06/06 04:18:10;;;;;;;8.65;5.95;;;;;;;17.45;75.32;100680.25;4192327;28;20043;-74
2022/06/06 04:20:24;;;;;;;9.55;6.97;;;;;;;17.55;75.17;100672.25;4209510;28;20487;-74
2022/06/06 04:22:35;;;;;;;7.20;5.68;;;;;;;17.54;75.32;100681.91;4199588;28;20048;-74
2022/06/06 04:24:53;;;;;;;8.20;5.30;;;;;;;17.59;75.18;100680.09;4207357;28;20036;-74
2022/06/06 04:27:07;;;;;;;14.15;6.60;;;;;;;17.65;75.17;100676.53;4208847;28;20491;-75
2022/06/06 04:29:21;;;;;;;8.98;5.32;;;;;;;17.70;74.79;100672.09;4206269;28;20042;-75
2022/06/06 04:31:35;;;;;;;6.03;5.10;;;;;;;17.67;75.03;100674.75;4198827;28;20071;-75
2022/06/06 04:33:46;;;;;;;7.18;4.65;;;;;;;17.62;75.16;100673.94;4207364;28;20043;-75
2022/06/06 04:36:03;;;;;;;9.40;5.80;;;;;;;17.60;75.40;100666.06;4209675;28;20048;-75
2022/06/06 04:38:13;;;;;;;9.35;5.97;;;;;;;17.69;75.07;100667.72;4206631;28;20140;-75
2022/06/06 04:40:35;;;;;;;9.52;5.43;;;;;;;17.71;74.71;100668.59;4198797;28;20144;-74
2022/06/06 04:42:44;;;;;;;6.85;5.78;;;;;;;17.67;75.01;100666.88;4206987;28;20127;-74
2022/06/06 04:44:54;;;;;;;8.85;5.85;;;;;;;17.67;74.92;100665.97;4206943;28;20051;-74
2022/06/06 04:47:03;;;;;;;6.63;4.90;;;;;;;17.65;75.29;100667.78;4209647;28;20042;-74
2022/06/06 04:49:06;;;;;;;6.70;5.50;;;;;;;17.66;75.24;100665.13;4199094;28;20037;-75
2022/06/06 04:51:12;;;;;;;10.30;5.47;;;;;;;17.66;75.50;100665.13;4211198;28;20031;-75
2022/06/06 04:53:19;;;;;;;7.53;5.38;;;;;;;17.67;75.69;100665.97;4205834;28;20058;-74
2022/06/06 04:55:25;;;;;;;8.68;5.55;;;;;;;17.67;75.66;100656.38;4214322;28;20039;-75
2022/06/06 04:57:30;;;;;;;7.35;5.25;;;;;;;17.69;75.52;100659.81;4203584;28;20040;-75
2022/06/06 04:59:36;;;;;;;7.53;5.65;;;;;;;17.72;75.26;100667.69;4197446;28;20072;-74
2022/06/06 05:01:40;;;;;;;8.55;5.78;;;;;;;17.75;75.32;100665.00;4198261;28;20440;-74
2022/06/06 05:03:44;;;;;;;7.03;5.07;;;;;;;17.74;75.68;100660.66;4205626;28;20041;-74
2022/06/06 05:06:08;;;;;;;7.20;4.13;;;;;;;17.79;75.09;100661.44;4215242;28;20436;-75
2022/06/06 05:08:27;;;;;;;7.63;5.88;;;;;;;17.83;74.73;100661.41;4197530;28;20036;-74
2022/06/06 05:10:44;;;;;;;6.25;4.78;;;;;;;17.82;74.80;100659.69;4180529;28;20051;-74
2022/06/06 05:13:12;;;;;;;9.13;5.97;;;;;;;17.87;75.09;100665.75;4201475;28;20094;-73
2022/06/06 05:15:29;;;;;;;7.32;4.78;;;;;;;17.92;75.05;100662.22;4203201;28;20040;-74
2022/06/06 05:17:50;;;;;;;6.97;4.65;;;;;;;17.96;75.45;100661.28;4199060;28;20040;-74
2022/06/06 05:20:07;;;;;;;8.30;5.20;;;;;;;18.04;75.29;100661.16;4206638;28;20067;-74
2022/06/06 05:22:34;;;;;;;6.47;5.38;;;;;;;18.06;75.61;100659.41;4204319;28;20479;-74
2022/06/06 05:24:58;;;;;;;8.68;5.45;;;;;;;18.05;75.06;100655.03;4204157;28;20397;-73
2022/06/06 05:27:16;;;;;;;8.65;5.30;;;;;;;18.17;74.70;100655.75;4200820;28;20410;-75
2022/06/06 05:29:40;;;;;;;7.82;6.00;;;;;;;18.28;74.07;100653.81;4211548;28;20400;-75
2022/06/06 05:32:12;;;;;;;10.10;4.90;;;;;;;18.20;73.92;100656.56;4207579;28;20062;-75
2022/06/06 05:34:20;;;;;;;7.70;5.57;;;;;;;18.28;74.10;100657.34;4211986;28;20044;-75
2022/06/06 05:36:37;;;;;;;8.57;5.25;;;;;;;18.33;73.80;100657.28;4198697;28;20051;-75
2022/06/06 05:38:58;;;;;;;7.57;4.47;;;;;;;18.38;73.74;100655.41;4202644;28;20051;-75
2022/06/06 05:41:15;;;;;;;5.07;4.03;;;;;;;18.45;73.81;100656.22;4202042;28;20046;-76
2022/06/06 05:43:35;;;;;;;8.63;4.72;;;;;;;18.45;73.84;100664.97;4206558;28;20032;-75
2022/06/06 05:45:46;;;;;;;8.43;4.72;;;;;;;18.43;73.67;100674.66;4210780;28;20086;-76
2022/06/06 05:48:06;;;;;;;7.93;4.70;;;;;;;18.36;73.32;100678.28;4204080;28;20049;-75
2022/06/06 05:50:22;;;;;;;5.05;3.78;;;;;;;18.36;73.06;100677.41;4206619;28;20038;-74
2022/06/06 05:52:47;;;;;;;9.07;4.57;;;;;;;18.30;73.04;100678.38;4204745;28;20044;-75
2022/06/06 05:55:06;;;;;;;5.95;4.93;;;;;;;18.31;73.29;100680.09;4202120;28;20040;-75
2022/06/06 05:57:27;;;;;;;7.40;4.70;;;;;;;18.34;73.08;100685.34;4206160;28;20130;-75
2022/06/06 05:59:52;;;;;;;7.18;4.43;;;;;;;18.39;73.18;100694.03;4205115;28;20162;-75
2022/06/06 06:02:02;;;;;;;;;;;;;;;18.28;73.60;100695.94;4204802;28;20025;-75
2022/06/06 06:04:24;;;;;;;6.70;4.60;;;;;;;18.30;73.60;100700.28;4211272;28;19927;-75
2022/06/06 06:06:34;;;;;;;6.35;4.50;;;;;;;18.37;73.19;100710.72;4207004;28;20533;-75
2022/06/06 06:08:55;;;;;;;6.65;4.95;;;;;;;18.46;72.25;100706.22;4207893;28;20123;-75
2022/06/06 06:11:12;;;;;;;6.10;4.43;;;;;;;18.53;72.13;100716.63;4202231;28;20044;-75
2022/06/06 06:13:31;;;;;;;6.03;4.40;;;;;;;18.58;72.18;100709.56;4204571;28;20040;-75
2022/06/06 06:15:40;;;;;;;7.20;5.20;;;;;;;18.72;71.87;100714.59;4205326;28;20047;-75
2022/06/06 06:17:45;;;;;;;8.23;4.50;;;;;;;18.76;71.99;100716.31;4206392;28;20086;-75
2022/06/06 06:19:59;;;;;;;11.10;3.95;;;;;;;18.75;72.54;100718.06;4205468;28;20039;-75
2022/06/06 06:22:06;;;;;;;7.35;4.72;;;;;;;18.75;72.84;100727.72;4197093;28;20064;-75
2022/06/06 06:24:12;;;;;;;4.38;3.42;;;;;;;18.76;73.20;100721.56;4206776;28;20055;-75
2022/06/06 06:26:14;;;;;;;13.13;5.00;;;;;;;18.81;72.24;100731.16;4203191;28;20040;-75
2022/06/06 06:28:18;;;;;;;6.57;4.30;;;;;;;18.89;71.44;100731.03;4205888;28;20071;-75
2022/06/06 06:30:21;;;;;;;7.47;5.03;;;;;;;18.83;71.90;100728.47;4198910;28;20036;-75
2022/06/06 06:32:59;;;;;;;11.68;4.82;;;;;;;18.91;72.03;100713.47;4199080;28;20123;-75
2022/06/06 06:35:14;;;;;;;7.07;5.28;;;;;;;18.96;71.94;100716.88;4200969;28;20050;-75
2022/06/06 06:37:33;;;;;;;9.15;4.68;;;;;;;18.95;72.75;100727.44;4203871;28;20544;-75
2022/06/06 06:39:57;;;;;;;5.88;3.80;;;;;;;18.89;71.46;100732.81;4200643;28;20058;-75
2022/06/06 06:42:17;;;;;;;6.97;4.30;;;;;;;19.01;71.79;100741.41;4190665;28;20124;-75
2022/06/06 06:44:27;;;;;;;5.50;3.78;;;;;;;19.04;71.72;100743.13;4204434;28;20041;-75
2022/06/06 06:46:35;;;;;;;7.05;4.80;;;;;;;19.13;71.17;100740.34;4198114;28;20144;-75
2022/06/06 06:48:45;;;;;;;6.57;5.13;;;;;;;19.18;71.07;100741.09;4203517;28;20040;-76
2022/06/06 06:50:56;;;;;;;7.45;4.38;;;;;;;19.09;69.92;100743.03;4204783;28;20032;-75
2022/06/06 06:53:24;;;;;;;7.25;4.72;;;;;;;19.12;70.70;100737.72;4203422;28;20504;-74
2022/06/06 06:55:37;;;;;;;7.32;4.13;;;;;;;19.07;70.45;100735.16;4202290;28;20032;-76
2022/06/06 06:58:03;;;;;;;10.15;6.18;;;;;;;19.30;70.53;100733.88;4202779;28;20038;-75
2022/06/06 07:00:11;;;;;;;7.47;4.53;;;;;;;19.29;70.32;100740.06;4203486;28;20044;-76
2022/06/06 07:10:12;;;;;;;6.32;4.00;;;;;;;19.19;70.33;100745.50;4200844;28;20044;-69
2022/06/06 07:12:29;;;;;;;6.07;3.92;;;;;;;19.25;70.35;100749.78;4201174;28;20079;-68
2022/06/06 07:14:48;;;;;;;5.85;4.25;;;;;;;19.44;70.07;100738.94;4205608;28;20145;-66
2022/06/06 07:16:57;;;;;;;6.30;4.32;;;;;;;19.50;69.61;100741.44;4199491;28;20043;-65
2022/06/06 07:19:07;;;;;;;5.57;4.13;;;;;;;19.54;69.13;100732.59;4201631;28;20036;-65
2022/06/06 07:21:12;;;;;;;11.93;4.80;;;;;;;19.60;69.28;100735.09;4200627;28;20040;-67
2022/06/06 07:23:17;;;;;;;7.57;4.38;;;;;;;19.59;68.78;100729.88;4199033;28;20036;-66
2022/06/06 07:25:22;;;;;;;4.65;4.03;;;;;;;19.42;68.97;100725.78;4202282;28;20558;-70
2022/06/06 07:27:25;;;;;;;6.55;4.60;;;;;;;19.51;68.72;100738.78;4194890;28;20047;-69
2022/06/06 07:29:29;;;;;;;7.43;4.10;;;;;;;19.48;68.40;100736.22;4204897;28;20132;-72
2022/06/06 07:31:49;;;;;;;5.43;3.90;;;;;;;19.52;68.53;100740.53;4209579;28;20123;-70
2022/06/06 07:34:09;;;;;;;6.55;4.63;;;;;;;19.63;68.46;100729.78;4204261;28;20056;-70
2022/06/06 07:36:22;;;;;;;6.63;4.25;;;;;;;19.70;68.57;100735.81;4197826;28;20052;-66
2022/06/06 07:38:41;;;;;;;5.47;4.30;;;;;;;19.74;67.79;100734.81;4214685;28;20481;-67
2022/06/06 07:40:59;;;;;;;6.25;5.00;;;;;;;19.95;67.34;100724.81;4203519;28;20032;-73
2022/06/06 07:43:32;;;;;;;6.25;4.20;;;;;;;19.93;67.35;100731.88;4203410;28;20088;-73
2022/06/06 07:45:42;;;;;;;6.13;4.40;;;;;;;20.01;68.10;100735.22;4205162;28;20113;-74
2022/06/06 07:48:17;;;;;;;7.55;4.07;;;;;;;20.09;67.16;100735.06;4208817;28;20123;-74
2022/06/06 07:50:24;;;;;;;5.43;3.88;;;;;;;20.26;67.49;100734.72;4205794;28;20101;-73
2022/06/06 07:52:38;;;;;;;4.00;3.33;;;;;;;20.18;66.51;100732.22;4211249;28;20032;-73
2022/06/06 07:54:51;;;;;;;12.25;4.18;;;;;;;20.14;66.99;100726.16;4202513;28;20085;-70
2022/06/06 07:57:02;;;;;;;6.47;3.60;;;;;;;20.12;67.90;100727.97;4191210;28;20132;-70
2022/06/06 07:59:18;;;;;;;7.15;4.10;;;;;;;20.04;67.26;100722.81;4207959;28;20036;-70
2022/06/06 08:01:37;;;;;;;4.82;3.42;;;;;;;20.07;67.42;100721.91;4210782;28;20520;-69
2022/06/06 08:03:51;;;;;;;4.72;3.53;;;;;;;20.14;67.01;100717.38;4207158;28;20410;-73
2022/06/06 08:06:11;;;;;;;6.25;3.17;;;;;;;20.16;66.89;100707.63;4199470;28;20043;-73
2022/06/06 08:08:25;;;;;;;5.80;3.30;;;;;;;20.14;66.83;100710.31;4204713;28;20134;-73
2022/06/06 08:10:39;;;;;;;3.83;2.97;;;;;;;20.28;66.36;100703.84;4206197;28;20090;-73
2022/06/06 08:13:20;;;;;;;3.67;2.97;;;;;;;20.36;65.07;100699.28;4201557;28;20040;-73
2022/06/06 08:15:30;;;;;;;9.38;2.80;;;;;;;20.44;64.09;100701.75;4207833;28;20344;-73
2022/06/06 08:17:45;;;;;;;4.70;2.65;;;;;;;20.41;62.68;100702.69;4201616;28;20032;-73
2022/06/06 08:20:04;;;;;;;4.32;3.20;;;;;;;20.36;62.76;100694.88;4205816;28;20059;-72
2022/06/06 08:22:09;;;;;;;4.53;2.75;;;;;;;20.33;62.89;100704.63;4202665;28;20055;-73
2022/06/06 08:24:22;;;;;;;3.67;2.70;;;;;;;20.36;62.26;100691.38;4203575;28;20395;-73
2022/06/06 08:26:51;;;;;;;5.45;3.20;;;;;;;20.34;62.02;100685.22;4204991;28;20067;-72
2022/06/06 08:28:55;;;;;;;6.72;3.00;;;;;;;20.39;61.15;100688.66;4204545;28;20048;-71
2022/06/06 08:30:59;;;;;;;9.15;2.88;;;;;;;20.38;60.46;100685.16;4192258;28;20037;-69
2022/06/06 08:33:02;;;;;;;3.37;2.63;;;;;;;20.53;61.02;100680.38;4203052;28;20140;-73
2022/06/06 08:35:06;;;;;;;5.10;3.25;;;;;;;20.52;60.44;100676.03;4197614;28;20870;-73
2022/06/06 08:37:33;;;;;;;4.28;2.80;;;;;;;20.49;59.26;100682.25;4203311;28;20501;-71
2022/06/06 08:39:45;;;;;;;5.00;2.60;;;;;;;20.63;60.26;100688.97;4196535;28;20061;-72
2022/06/06 08:42:10;;;;;;;8.95;3.08;;;;;;;20.77;59.68;100678.97;4204101;28;20123;-72
2022/06/06 08:44:42;;;;;;;4.38;2.42;;;;;;;20.93;59.70;100685.63;4206368;28;20424;-72
2022/06/06 08:47:01;;;;;;;10.32;2.60;;;;;;;20.80;57.53;100681.53;4186204;28;20044;-72
2022/06/06 08:51:49;;;;;;;5.20;2.83;;;;;;;21.07;58.22;100677.34;4202599;28;20047;-72
2022/06/06 08:54:30;;;;;;;7.25;2.78;;;;;;;21.10;57.35;100682.53;4197589;28;20060;-72
2022/06/06 08:56:56;;;;;;;5.68;2.83;;;;;;;21.10;56.38;100673.75;4202318;28;20497;-71
2022/06/06 08:59:32;;;;;;;3.70;2.15;;;;;;;21.14;57.37;100672.75;4204432;28;20051;-74
2022/06/06 09:01:59;;;;;;;3.20;2.15;;;;;;;21.33;57.58;100674.91;4202496;28;20079;-73
2022/06/06 09:04:32;;;;;;;6.15;2.40;;;;;;;21.31;55.73;100667.03;4203512;28;20517;-73
2022/06/06 09:07:14;;;;;;;3.58;2.03;;;;;;;21.29;55.64;100660.91;4199301;28;20043;-73
2022/06/06 09:09:49;;;;;;;5.63;2.50;;;;;;;21.48;55.78;100663.91;4203726;28;20566;-74
2022/06/06 09:12:33;;;;;;;7.43;2.50;;;;;;;21.37;56.08;100663.34;4205566;28;20139;-74
2022/06/06 09:15:04;;;;;;;4.43;1.95;;;;;;;21.51;55.04;100655.94;4202211;28;20470;-73
2022/06/06 09:17:52;;;;;;;3.85;1.90;;;;;;;21.56;54.51;100664.59;4201621;28;20032;-72
2022/06/06 09:20:38;;;;;;;6.28;2.60;;;;;;;21.60;53.69;100665.38;4196700;28;20079;-74
2022/06/06 09:23:12;;;;;;;3.95;2.47;;;;;;;21.68;53.74;100667.81;4201398;28;20567;-73
2022/06/06 09:25:34;;;;;;;11.07;2.25;;;;;;;21.74;53.85;100664.97;4198764;28;20076;-74
2022/06/06 09:28:18;;;;;;;4.35;2.10;;;;;;;21.73;52.47;100665.91;4196647;28;20498;-72
2022/06/06 09:30:59;;;;;;;3.35;1.88;;;;;;;21.71;53.38;100657.13;4201420;28;20104;-70
2022/06/06 09:33:36;;;;;;;8.00;2.40;;;;;;;21.93;54.23;100663.53;4204820;28;20652;-70
2022/06/06 09:36:02;;;;;;;3.30;1.70;;;;;;;22.07;53.43;100667.56;4198975;28;20436;-73
2022/06/06 09:38:14;;;;;;;2.10;1.90;;;;;;;22.10;53.30;100670.09;4198272;28;20047;-69
2022/06/06 09:40:23;;;;;;;5.32;2.30;;;;;;;22.09;52.56;100663.06;4201128;28;20051;-69
2022/06/06 09:42:38;;;;;;;4.60;1.98;;;;;;;22.13;52.78;100660.28;4202858;28;20042;-69
2022/06/06 09:45:20;;;;;;;2.40;1.52;;;;;;;22.07;52.48;100663.13;4208456;28;20066;-72
2022/06/06 09:47:45;;;;;;;2.33;1.70;;;;;;;22.10;52.79;100670.09;4189833;28;20044;-72
2022/06/06 09:50:41;;;;;;;3.75;2.05;;;;;;;22.21;51.98;100662.69;4197119;28;20039;-70
2022/06/06 09:53:13;;;;;;;2.75;1.50;;;;;;;22.40;51.36;100667.44;4121336;28;20793;-69
2022/06/06 10:01:31;;;;;;;5.25;2.35;;;;;;;22.89;49.94;100644.63;4194563;28;20151;-70
2022/06/06 10:04:02;;;;;;;3.33;1.80;;;;;;;23.02;50.65;100639.78;4203544;28;20047;-70
2022/06/06 10:06:40;;;;;;;4.70;1.95;;;;;;;22.89;50.94;100644.63;4208184;28;20141;-70
2022/06/06 10:09:24;;;;;;;3.75;1.80;;;;;;;22.62;50.78;100643.78;4208933;28;20046;-70
2022/06/06 10:11:51;;;;;;;2.50;1.70;;;;;;;22.47;50.37;100658.38;4211453;28;20110;-70
2022/06/06 10:14:14;;;;;;;3.33;1.90;;;;;;;22.30;50.89;100656.25;4200486;28;20047;-70
2022/06/06 10:16:42;;;;;;;4.00;1.92;;;;;;;22.08;50.89;100656.91;4205587;28;20039;-71
2022/06/06 10:18:59;;;;;;;6.35;2.08;;;;;;;22.02;51.09;100657.09;4201245;28;20041;-70
2022/06/06 10:21:20;;;;;;;4.20;1.85;;;;;;;22.09;51.45;100657.75;4200845;28;20135;-70
2022/06/06 10:23:42;;;;;;;2.63;1.63;;;;;;;22.06;51.02;100655.22;4199685;28;20127;-68
2022/06/06 10:26:07;;;;;;;1.48;1.30;;;;;;;22.03;51.03;100656.16;4197450;28;20044;-68
2022/06/06 10:28:26;;;;;;;3.15;1.92;;;;;;;21.99;50.65;100656.31;4183769;28;20075;-71
2022/06/06 10:30:38;;;;;;;2.22;1.55;;;;;;;21.91;49.94;100649.47;4203044;28;20043;-70
2022/06/06 10:33:20;;;;;;;4.45;1.40;;;;;;;21.78;50.69;100653.41;4194342;28;20074;-68
2022/06/06 10:35:32;;;;;;;2.08;1.35;;;;;;;21.60;50.85;100653.00;4202059;28;20106;-68
2022/06/06 10:37:59;;;;;;;1.75;1.42;;;;;;;21.57;51.08;100650.47;4202973;28;20130;-68
2022/06/06 10:40:20;;;;;;;3.92;1.60;;;;;;;21.49;50.57;100646.25;4197676;28;20052;-69
2022/06/06 10:42:51;;;;;;;7.03;2.17;;;;;;;21.60;50.51;100644.22;4195617;28;20071;-68
2022/06/06 10:45:17;;;;;;;2.92;1.60;;;;;;;21.54;50.82;100654.97;4178790;28;20132;-69
2022/06/06 10:47:40;;;;;;;2.78;1.42;;;;;;;21.56;51.14;100658.44;4210956;28;20374;-69
2022/06/06 10:49:50;;;;;;;4.25;2.17;;;;;;;21.58;51.48;100664.53;4206501;28;20032;-69